createdAt,value
2023-01-28T00:02:21.948Z,86.12
2023-01-28T00:04:51.835Z,86.45
2023-01-28T00:07:20.314Z,85.60
2023-01-28T00:09:47.897Z,86.32
2023-01-28T00:12:15.497Z,85.89
2023-01-28T00:14:43.101Z,86.53
2023-01-28T00:17:10.697Z,85.66
2023-01-28T00:19:38.275Z,86.04
2023-01-28T00:22:07.263Z,85.71
2023-01-28T00:24:34.824Z,86.48
2023-01-28T00:27:02.473Z,86.24
2023-01-28T00:29:30.010Z,86.30
2023-01-28T00:31:57.588Z,86.50
2023-01-28T00:34:25.144Z,85.81
2023-01-28T00:36:57.592Z,86.25
2023-01-28T00:39:27.733Z,86.59
2023-01-28T00:41:55.355Z,86.29
2023-01-28T00:44:22.938Z,86.16
2023-01-28T00:46:50.607Z,86.19
2023-01-28T00:49:18.503Z,86.24
2023-01-28T00:51:46.119Z,86.08
2023-01-28T00:54:14.099Z,86.42
2023-01-28T00:56:43.019Z,86.57
2023-01-28T00:59:10.672Z,85.66
2023-01-28T01:01:38.306Z,86.52
2023-01-28T01:04:06.111Z,85.56
2023-01-28T01:06:36.209Z,85.04
2023-01-28T01:09:08.320Z,83.85
2023-01-28T01:11:36.149Z,84.44
2023-01-28T01:14:07.107Z,84.58
2023-01-28T01:16:36.113Z,85.90
2023-01-28T01:19:04.451Z,86.38
2023-01-28T01:21:32.592Z,84.88
2023-01-28T01:24:00.270Z,86.16
2023-01-28T01:26:27.881Z,84.91
2023-01-28T01:28:56.203Z,85.45
2023-01-28T01:31:25.214Z,85.19
2023-01-28T01:33:53.722Z,84.66
2023-01-28T01:36:22.085Z,86.51
2023-01-28T01:38:54.007Z,86.61
2023-01-28T01:41:26.737Z,85.63
2023-01-28T01:43:56.391Z,85.99
2023-01-28T01:46:31.772Z,86.63
2023-01-28T01:49:04.994Z,86.79
2023-01-28T01:51:35.541Z,86.58
2023-01-28T01:54:04.044Z,86.06
2023-01-28T01:56:36.652Z,86.67
2023-01-28T01:59:05.582Z,86.49
2023-01-28T02:01:34.536Z,85.84
2023-01-28T02:04:08.175Z,85.70
2023-01-28T02:06:37.736Z,85.51
2023-01-28T02:09:09.100Z,86.26
2023-01-28T02:11:37.634Z,86.34
2023-01-28T02:14:07.691Z,85.63
2023-01-28T02:16:36.727Z,86.37
2023-01-28T02:19:04.463Z,86.46
2023-01-28T02:21:58.007Z,86.72
2023-01-28T02:24:54.948Z,86.45
2023-01-28T02:27:31.094Z,86.50
2023-01-28T02:30:07.760Z,86.59
2023-01-28T02:32:41.691Z,86.81
2023-01-28T02:35:15.845Z,86.65
2023-01-28T02:37:48.844Z,86.63
2023-01-28T02:40:23.384Z,86.52
2023-01-28T02:42:50.998Z,86.98
2023-01-28T02:45:46.068Z,87.20
2023-01-28T02:48:12.974Z,87.53
2023-01-28T02:50:51.128Z,87.09
2023-01-28T02:53:44.797Z,86.46
2023-01-28T02:56:21.509Z,86.47
2023-01-28T02:58:57.228Z,86.48
2023-01-28T03:01:33.618Z,86.02
2023-01-28T03:04:06.782Z,85.39
2023-01-28T03:06:39.196Z,86.33
2023-01-28T03:09:24.493Z,86.60
2023-01-28T03:12:13.855Z,85.93
2023-01-28T03:15:00.391Z,85.38
2023-01-28T03:17:53.110Z,85.19
2023-01-28T03:20:40.958Z,85.42
2023-01-28T03:23:29.970Z,86.04
2023-01-28T03:26:19.664Z,85.65
2023-01-28T03:29:07.183Z,85.45
2023-01-28T03:31:54.643Z,85.72
2023-01-28T03:34:42.165Z,85.56
2023-01-28T03:37:10.053Z,85.21
2023-01-28T03:39:38.856Z,85.73
2023-01-28T03:42:09.559Z,85.99
2023-01-28T03:44:52.944Z,85.72
2023-01-28T03:47:22.006Z,86.23
2023-01-28T03:49:52.628Z,85.27
2023-01-28T03:52:22.559Z,85.89
2023-01-28T03:54:51.944Z,85.76
2023-01-28T03:57:21.400Z,85.68
2023-01-28T03:59:49.731Z,85.97
2023-01-28T04:02:18.139Z,85.69
2023-01-28T04:04:45.705Z,85.74
2023-01-28T04:07:15.462Z,85.90
2023-01-28T04:09:43.844Z,86.53
2023-01-28T04:12:11.824Z,84.82
2023-01-28T04:14:40.378Z,85.83
2023-01-28T04:17:10.389Z,85.67
2023-01-28T04:19:38.416Z,85.81
2023-01-28T04:22:08.878Z,86.01
2023-01-28T04:24:37.765Z,86.68
2023-01-28T04:27:05.539Z,85.99
2023-01-28T04:29:33.105Z,85.69
2023-01-28T04:32:00.653Z,85.38
2023-01-28T04:34:28.221Z,85.73
2023-01-28T04:36:55.792Z,85.14
2023-01-28T04:39:23.537Z,85.95
2023-01-28T04:41:52.454Z,86.09
2023-01-28T04:44:20.037Z,85.67
2023-01-28T04:46:47.695Z,85.53
2023-01-28T04:49:15.271Z,85.96
2023-01-28T04:51:42.891Z,85.21
2023-01-28T04:54:10.687Z,85.99
2023-01-28T04:56:38.221Z,85.76
2023-01-28T04:59:08.180Z,86.37
2023-01-28T05:01:35.854Z,85.76
2023-01-28T05:04:05.697Z,85.83
2023-01-28T05:06:33.457Z,85.32
2023-01-28T05:09:01.618Z,84.33
2023-01-28T05:11:29.191Z,86.14
2023-01-28T05:13:56.731Z,85.49
2023-01-28T05:16:25.710Z,85.61
2023-01-28T05:18:53.325Z,85.66
2023-01-28T05:21:21.125Z,86.29
2023-01-28T05:23:48.732Z,85.92
2023-01-28T05:26:16.268Z,85.01
2023-01-28T05:28:43.893Z,84.42
2023-01-28T05:31:11.993Z,85.15
2023-01-28T05:33:40.948Z,85.70
2023-01-28T05:36:08.880Z,85.56
2023-01-28T05:38:36.462Z,85.40
2023-01-28T05:41:04.039Z,84.91
2023-01-28T05:43:31.595Z,84.94
2023-01-28T05:45:59.218Z,86.14
2023-01-28T05:48:27.008Z,85.29
2023-01-28T05:50:56.002Z,85.24
2023-01-28T05:53:23.574Z,85.17
2023-01-28T05:55:52.109Z,85.57
2023-01-28T05:58:20.070Z,84.94
2023-01-28T06:00:47.811Z,85.25
2023-01-28T06:03:15.515Z,86.75
2023-01-28T06:05:43.259Z,85.94
2023-01-28T06:08:12.167Z,85.53
2023-01-28T06:10:39.882Z,86.02
2023-01-28T06:13:07.626Z,86.70
2023-01-28T06:15:35.253Z,87.07
2023-01-28T06:18:02.906Z,87.46
2023-01-28T06:20:30.598Z,86.03
2023-01-28T06:22:58.156Z,86.17
2023-01-28T06:25:27.067Z,87.03
2023-01-28T06:27:54.728Z,86.74
2023-01-28T06:30:22.450Z,87.18
2023-01-28T06:32:55.624Z,86.40
2023-01-28T06:35:23.385Z,86.36
2023-01-28T06:37:52.356Z,87.02
2023-01-28T06:40:19.945Z,87.96
2023-01-28T06:42:48.856Z,87.25
2023-01-28T06:45:16.428Z,86.82
2023-01-28T06:47:43.990Z,86.30
2023-01-28T06:50:12.592Z,86.56
2023-01-28T06:52:41.514Z,86.41
2023-01-28T06:55:09.845Z,86.46
2023-01-28T06:57:39.253Z,86.52
2023-01-28T07:00:11.163Z,86.07
2023-01-28T07:02:38.865Z,84.97
2023-01-28T07:05:07.555Z,86.11
2023-01-28T07:07:35.313Z,86.71
2023-01-28T07:10:02.902Z,85.29
2023-01-28T07:12:30.514Z,85.96
2023-01-28T07:14:58.052Z,85.65
2023-01-28T07:17:27.013Z,85.16
2023-01-28T07:19:54.594Z,85.42
2023-01-28T07:22:22.372Z,86.19
2023-01-28T07:24:49.932Z,85.14
2023-01-28T07:27:17.489Z,86.01
2023-01-28T07:29:45.035Z,85.67
2023-01-28T07:32:12.607Z,85.09
2023-01-28T07:34:43.072Z,84.90
2023-01-28T07:37:10.994Z,84.47
2023-01-28T07:39:38.591Z,84.98
2023-01-28T07:42:06.462Z,84.71
2023-01-28T07:44:35.816Z,84.15
2023-01-28T07:47:03.590Z,84.66
2023-01-28T07:49:31.173Z,84.70
2023-01-28T07:52:00.650Z,85.01
2023-01-28T07:54:28.240Z,82.94
2023-01-28T07:56:55.777Z,84.13
2023-01-28T07:59:23.788Z,84.25
2023-01-28T08:01:53.086Z,84.16
2023-01-28T08:04:21.785Z,84.41
2023-01-28T08:06:49.502Z,83.78
2023-01-28T08:09:18.457Z,83.94
2023-01-28T08:11:46.059Z,82.92
2023-01-28T08:14:13.881Z,82.72
2023-01-28T08:16:41.455Z,82.36
2023-01-28T08:19:09.216Z,83.63
2023-01-28T08:21:36.746Z,82.59
2023-01-28T08:24:04.335Z,83.37
2023-01-28T08:26:33.265Z,83.59
2023-01-28T08:29:00.808Z,83.29
2023-01-28T08:31:29.092Z,83.11
2023-01-28T08:33:56.776Z,84.39
2023-01-28T08:36:24.425Z,83.94
2023-01-28T08:38:54.048Z,83.51
2023-01-28T08:41:22.176Z,82.50
2023-01-28T08:43:51.258Z,83.50
2023-01-28T08:46:18.912Z,82.30
2023-01-28T08:48:46.559Z,82.68
2023-01-28T08:51:14.173Z,82.71
2023-01-28T08:53:41.771Z,82.94
2023-01-28T08:56:09.348Z,82.67
2023-01-28T08:58:37.140Z,81.70
2023-01-28T09:01:07.269Z,81.98
2023-01-28T09:03:36.135Z,81.24
2023-01-28T09:06:04.842Z,81.55
2023-01-28T09:08:33.019Z,81.21
2023-01-28T09:11:01.718Z,81.60
2023-01-28T09:13:30.066Z,81.55
2023-01-28T09:15:58.082Z,80.94
2023-01-28T09:18:26.974Z,81.36
2023-01-28T09:20:54.511Z,80.25
2023-01-28T09:23:22.048Z,81.70
2023-01-28T09:25:49.661Z,80.89
2023-01-28T09:28:17.409Z,81.11
2023-01-28T09:30:44.966Z,79.72
2023-01-28T09:33:12.518Z,81.00
2023-01-28T09:35:41.453Z,81.12
2023-01-28T09:38:09.174Z,80.83
2023-01-28T09:40:38.830Z,80.96
2023-01-28T09:43:25.667Z,80.47
2023-01-28T09:45:56.666Z,80.95
2023-01-28T09:48:32.710Z,80.26
2023-01-28T09:51:02.487Z,80.40
2023-01-28T09:53:32.924Z,79.43
2023-01-28T09:56:03.661Z,79.29
2023-01-28T09:58:31.621Z,78.54
2023-01-28T10:01:05.009Z,78.87
2023-01-28T10:03:47.913Z,78.56
2023-01-28T10:06:28.450Z,78.34
2023-01-28T10:09:13.857Z,78.94
2023-01-28T10:11:54.569Z,78.94
2023-01-28T10:14:34.318Z,78.21
2023-01-28T10:17:08.872Z,77.44
2023-01-28T10:19:42.089Z,78.24
2023-01-28T10:22:17.239Z,77.76
2023-01-28T10:24:50.304Z,77.89
2023-01-28T10:27:20.842Z,77.74
2023-01-28T10:29:49.980Z,77.98
2023-01-28T10:32:26.741Z,77.15
2023-01-28T10:34:54.496Z,77.14
2023-01-28T10:37:23.554Z,77.45
2023-01-28T10:40:02.808Z,77.74
2023-01-28T10:42:32.238Z,77.83
2023-01-28T10:45:02.724Z,77.91
2023-01-28T10:47:39.031Z,77.51
2023-01-28T10:50:16.348Z,76.38
2023-01-28T10:52:55.653Z,76.79
2023-01-28T10:55:25.356Z,77.54
2023-01-28T10:57:53.926Z,77.60
2023-01-28T11:00:26.877Z,76.12
2023-01-28T11:02:55.925Z,76.20
2023-01-28T11:05:27.163Z,76.57
2023-01-28T11:08:07.006Z,76.00
2023-01-28T11:10:36.913Z,76.79
2023-01-28T11:13:06.255Z,75.90
2023-01-28T11:15:34.537Z,77.28
2023-01-28T11:18:04.033Z,76.61
2023-01-28T11:20:38.424Z,76.99
2023-01-28T11:23:07.839Z,76.26
2023-01-28T11:25:37.777Z,75.97
2023-01-28T11:28:09.103Z,76.44
2023-01-28T11:30:40.305Z,76.29
2023-01-28T11:33:16.770Z,75.33
2023-01-28T11:35:53.834Z,76.25
2023-01-28T11:38:25.195Z,75.28
2023-01-28T11:40:53.769Z,76.39
2023-01-28T11:43:24.353Z,75.23
2023-01-28T11:46:04.792Z,75.17
2023-01-28T11:48:42.800Z,74.91
2023-01-28T11:51:24.962Z,74.48
2023-01-28T11:54:03.126Z,74.50
2023-01-28T11:56:45.437Z,75.62
2023-01-28T11:59:43.199Z,74.58
2023-01-28T12:02:25.066Z,75.25
2023-01-28T12:05:17.804Z,75.88
2023-01-28T12:07:51.942Z,74.18
2023-01-28T12:10:30.510Z,73.67
2023-01-28T12:13:15.194Z,74.92
2023-01-28T12:16:01.378Z,74.71
2023-01-28T12:18:52.397Z,74.03
2023-01-28T12:21:29.224Z,74.05
2023-01-28T12:24:11.267Z,74.11
2023-01-28T12:26:49.154Z,74.93
2023-01-28T12:29:25.067Z,73.68
2023-01-28T12:32:06.186Z,73.54
2023-01-28T12:35:02.649Z,73.46
2023-01-28T12:37:42.045Z,73.93
2023-01-28T12:40:40.307Z,73.63
2023-01-28T12:43:15.813Z,73.39
2023-01-28T12:45:48.111Z,73.73
2023-01-28T12:48:20.319Z,73.90
2023-01-28T12:50:52.188Z,73.81
2023-01-28T12:53:27.543Z,74.14
2023-01-28T12:56:00.570Z,73.94
2023-01-28T12:58:38.306Z,74.61
2023-01-28T13:01:10.465Z,74.49
2023-01-28T13:03:42.824Z,75.07
2023-01-28T13:06:16.457Z,74.43
2023-01-28T13:08:44.047Z,73.96
2023-01-28T13:11:16.905Z,75.07
2023-01-28T13:13:47.338Z,74.16
2023-01-28T13:16:15.066Z,73.45
2023-01-28T13:18:47.501Z,74.03
2023-01-28T13:21:18.551Z,75.45
2023-01-28T13:23:47.951Z,75.46
2023-01-28T13:26:39.334Z,75.86
2023-01-28T13:29:29.033Z,75.63
2023-01-28T13:31:57.965Z,75.72
2023-01-28T13:34:33.569Z,75.02
2023-01-28T13:37:06.132Z,74.51
2023-01-28T13:39:36.556Z,74.03
2023-01-28T13:42:22.888Z,73.79
2023-01-28T13:44:52.225Z,73.65
2023-01-28T13:47:26.410Z,74.14
2023-01-28T13:49:58.480Z,74.12
2023-01-28T13:52:31.797Z,74.13
2023-01-28T13:55:04.619Z,74.69
2023-01-28T13:57:48.974Z,75.19
2023-01-28T14:00:27.085Z,75.86
2023-01-28T14:03:21.639Z,76.71
2023-01-28T14:06:17.318Z,75.67
2023-01-28T14:09:04.336Z,75.42
2023-01-28T14:12:23.028Z,74.76
2023-01-28T14:15:09.285Z,75.39
2023-01-28T14:17:45.355Z,75.52
2023-01-28T14:20:20.836Z,75.64
2023-01-28T14:22:49.295Z,75.76
2023-01-28T14:25:21.904Z,75.22
2023-01-28T14:27:54.770Z,75.73
2023-01-28T14:30:30.347Z,76.36
2023-01-28T14:32:59.903Z,76.26
2023-01-28T14:35:31.724Z,75.24
2023-01-28T14:38:01.829Z,74.80
2023-01-28T14:40:31.291Z,75.79
2023-01-28T14:42:59.455Z,74.78
2023-01-28T14:45:43.305Z,76.36
2023-01-28T14:48:25.202Z,75.63
2023-01-28T14:51:20.465Z,74.87
2023-01-28T14:54:16.935Z,74.98
2023-01-28T14:56:58.564Z,74.46
2023-01-28T14:59:29.223Z,75.50
2023-01-28T15:01:59.345Z,75.77
2023-01-28T15:04:30.950Z,74.31
2023-01-28T15:07:03.123Z,73.77
2023-01-28T15:09:30.860Z,74.10
2023-01-28T15:11:59.846Z,74.33
2023-01-28T15:14:30.301Z,75.30
2023-01-28T15:16:58.417Z,74.66
2023-01-28T15:19:31.095Z,74.83
2023-01-28T15:22:01.272Z,74.46
2023-01-28T15:24:29.117Z,74.70
2023-01-28T15:26:57.201Z,74.98
2023-01-28T15:29:26.984Z,74.96
2023-01-28T15:31:54.670Z,75.05
2023-01-28T15:34:23.535Z,75.58
2023-01-28T15:36:52.502Z,75.35
2023-01-28T15:39:22.428Z,74.64
2023-01-28T15:41:53.019Z,75.25
2023-01-28T15:44:29.327Z,74.62
2023-01-28T15:46:57.853Z,74.12
2023-01-28T15:49:29.648Z,74.58
2023-01-28T15:51:58.699Z,74.12
2023-01-28T15:54:26.897Z,73.88
2023-01-28T15:56:54.507Z,74.66
2023-01-28T15:59:27.969Z,73.85
2023-01-28T16:02:19.699Z,74.74
2023-01-28T16:04:57.933Z,74.36
2023-01-28T16:07:28.191Z,75.06
2023-01-28T16:09:57.834Z,75.77
2023-01-28T16:12:26.818Z,75.07
2023-01-28T16:14:57.049Z,75.96
2023-01-28T16:17:27.977Z,73.97
2023-01-28T16:19:59.792Z,74.30
2023-01-28T16:22:35.471Z,74.60
2023-01-28T16:25:03.574Z,73.59
2023-01-28T16:27:32.146Z,74.30
2023-01-28T16:29:59.869Z,72.99
2023-01-28T16:32:30.206Z,74.00
2023-01-28T16:34:57.887Z,73.85
2023-01-28T16:40:01.562Z,72.73
2023-01-28T16:42:30.369Z,72.69
2023-01-28T16:44:57.982Z,72.46
2023-01-28T16:47:25.538Z,71.09
2023-01-28T16:49:53.130Z,71.19
2023-01-28T16:52:20.717Z,71.66
2023-01-28T16:54:48.508Z,71.50
2023-01-28T16:57:19.842Z,70.86
2023-01-28T16:59:47.483Z,71.08
2023-01-28T17:02:16.465Z,70.88
2023-01-28T17:04:44.036Z,69.91
2023-01-28T17:07:11.675Z,69.91
2023-01-28T17:09:39.365Z,70.30
2023-01-28T17:12:07.700Z,70.50
2023-01-28T17:14:36.625Z,70.35
2023-01-28T17:17:04.390Z,69.40
2023-01-28T17:19:32.038Z,71.55
2023-01-28T17:21:59.688Z,70.66
2023-01-28T17:24:27.409Z,69.46
2023-01-28T17:26:55.234Z,69.44
2023-01-28T17:29:22.879Z,69.49
2023-01-28T17:31:51.903Z,68.96
2023-01-28T17:34:19.593Z,68.92
2023-01-28T17:36:47.152Z,69.33
2023-01-28T17:39:14.761Z,69.16
2023-01-28T17:41:42.409Z,69.04
2023-01-28T17:44:12.280Z,68.75
2023-01-28T17:46:39.888Z,68.48
2023-01-28T17:49:08.820Z,69.44
2023-01-28T17:51:36.853Z,68.91
2023-01-28T17:54:04.944Z,69.09
2023-01-28T17:56:32.904Z,69.24
2023-01-28T17:59:03.533Z,68.46
2023-01-28T18:01:32.159Z,68.92
2023-01-28T18:04:00.204Z,68.10
2023-01-28T18:06:32.518Z,68.57
2023-01-28T18:09:00.144Z,68.45
2023-01-28T18:11:28.641Z,68.33
2023-01-28T18:13:56.687Z,68.28
2023-01-28T18:16:24.740Z,67.90
2023-01-28T18:18:52.349Z,67.62
2023-01-28T18:21:22.569Z,67.43
2023-01-28T18:23:54.013Z,67.71
2023-01-28T18:26:23.645Z,66.82
2023-01-28T18:28:51.222Z,66.52
2023-01-28T18:31:19.334Z,65.06
2023-01-28T18:33:47.350Z,66.53
2023-01-28T18:36:15.026Z,65.84
2023-01-28T18:38:42.609Z,65.98
2023-01-28T18:41:11.510Z,65.98
2023-01-28T18:43:39.115Z,65.26
2023-01-28T18:46:12.598Z,64.38
2023-01-28T18:48:40.403Z,65.92
2023-01-28T18:51:17.502Z,65.21
2023-01-28T18:53:57.694Z,65.54
2023-01-28T18:56:26.676Z,67.08
2023-01-28T18:58:57.195Z,65.76
2023-01-28T19:01:24.967Z,65.72
2023-01-28T19:03:53.935Z,64.48
2023-01-28T19:06:21.627Z,65.16
2023-01-28T19:08:53.528Z,66.25
2023-01-28T19:11:21.557Z,66.26
2023-01-28T19:13:50.670Z,66.03
2023-01-28T19:16:18.522Z,67.22
2023-01-28T19:18:52.435Z,67.55
2023-01-28T19:21:20.220Z,67.86
2023-01-28T19:23:50.280Z,67.87
2023-01-28T19:26:21.153Z,67.26
2023-01-28T19:28:50.854Z,66.78
2023-01-28T19:31:20.609Z,66.26
2023-01-28T19:33:48.879Z,66.59
2023-01-28T19:36:17.150Z,65.78
2023-01-28T19:38:45.009Z,67.47
2023-01-28T19:41:16.003Z,66.08
2023-01-28T19:43:44.148Z,66.70
2023-01-28T19:46:16.545Z,65.98
2023-01-28T19:48:44.638Z,67.30
2023-01-28T19:51:13.943Z,66.91
2023-01-28T19:53:43.036Z,66.73
2023-01-28T19:56:12.739Z,68.00
2023-01-28T19:58:42.223Z,67.44
2023-01-28T20:01:12.559Z,67.64
2023-01-28T20:03:41.959Z,67.35
2023-01-28T20:06:13.149Z,67.41
2023-01-28T20:08:41.205Z,67.63
2023-01-28T20:11:11.323Z,68.49
2023-01-28T20:13:40.948Z,68.40
2023-01-28T20:16:14.208Z,68.00
2023-01-28T20:18:43.295Z,67.76
2023-01-28T20:21:10.982Z,67.59
2023-01-28T20:23:38.690Z,68.25
2023-01-28T20:26:06.573Z,67.91
2023-01-28T20:28:34.314Z,66.83
2023-01-28T20:31:06.304Z,66.57
2023-01-28T20:33:34.280Z,68.01
2023-01-28T20:36:05.309Z,67.70
2023-01-28T20:38:35.865Z,67.77
2023-01-28T20:41:07.010Z,67.02
2023-01-28T20:43:35.373Z,67.00
2023-01-28T20:46:04.845Z,67.75
2023-01-28T20:48:32.694Z,67.73
2023-01-28T20:51:07.251Z,68.20
2023-01-28T20:53:35.045Z,66.79
2023-01-28T20:56:02.827Z,67.74
2023-01-28T20:58:30.850Z,67.48
2023-01-28T21:00:58.507Z,67.05
2023-01-28T21:03:26.308Z,67.61
2023-01-28T21:05:54.341Z,68.76
2023-01-28T21:08:23.564Z,69.08
2023-01-28T21:10:51.172Z,69.35
2023-01-28T21:13:18.805Z,68.46
2023-01-28T21:15:57.861Z,67.23
2023-01-28T21:18:26.482Z,67.48
2023-01-28T21:20:55.332Z,68.21
2023-01-28T21:23:25.671Z,67.54
2023-01-28T21:25:53.365Z,67.48
2023-01-28T21:28:21.295Z,67.64
2023-01-28T21:30:48.991Z,67.83
2023-01-28T21:33:16.669Z,68.07
2023-01-28T21:35:44.801Z,68.75
2023-01-28T21:38:12.731Z,68.46
2023-01-28T21:40:41.687Z,69.27
2023-01-28T21:43:09.265Z,69.61
2023-01-28T21:45:36.812Z,69.01
2023-01-28T21:48:04.542Z,68.48
2023-01-28T21:50:52.109Z,67.64
2023-01-28T21:53:19.744Z,68.57
2023-01-28T21:55:49.385Z,68.70
2023-01-28T21:58:34.728Z,67.41
2023-01-28T22:01:09.199Z,68.45
2023-01-28T22:03:36.823Z,67.83
2023-01-28T22:06:04.821Z,67.74
2023-01-28T22:08:32.437Z,67.78
2023-01-28T22:11:04.542Z,69.43
2023-01-28T22:13:32.736Z,68.22
2023-01-28T22:16:00.619Z,67.35
2023-01-28T22:18:28.258Z,67.31
2023-01-28T22:20:59.939Z,66.68
2023-01-28T22:23:27.777Z,67.13
2023-01-28T22:25:56.162Z,67.80
2023-01-28T22:28:26.155Z,67.68
2023-01-28T22:30:54.823Z,67.76
2023-01-28T22:33:23.303Z,67.30
2023-01-28T22:35:50.847Z,65.97
2023-01-28T22:38:18.693Z,66.80
2023-01-28T22:40:46.362Z,67.88
2023-01-28T22:43:14.043Z,68.49
2023-01-28T22:45:43.075Z,66.57
2023-01-28T22:48:10.738Z,66.12
2023-01-28T22:50:38.358Z,68.32
2023-01-28T22:53:05.897Z,68.40
2023-01-28T22:55:33.797Z,67.47
2023-01-28T22:58:01.681Z,68.22
2023-01-28T23:00:29.726Z,66.72
2023-01-28T23:02:58.731Z,65.91
2023-01-28T23:05:27.290Z,65.26
2023-01-28T23:08:10.869Z,65.09
2023-01-28T23:10:39.439Z,65.72
2023-01-28T23:13:07.541Z,65.03
2023-01-28T23:15:52.541Z,65.63
2023-01-28T23:18:43.030Z,65.79
2023-01-28T23:21:35.203Z,65.58
2023-01-28T23:24:21.695Z,65.25
2023-01-28T23:26:55.080Z,65.36
2023-01-28T23:29:24.984Z,65.49
2023-01-28T23:31:55.269Z,67.30
2023-01-28T23:34:24.495Z,68.24
2023-01-28T23:36:52.168Z,66.15
2023-01-28T23:39:19.762Z,65.77
2023-01-28T23:41:47.382Z,65.76
2023-01-28T23:44:16.884Z,65.87
2023-01-28T23:46:45.818Z,66.03
2023-01-28T23:49:13.792Z,65.23
2023-01-28T23:51:42.775Z,65.90
2023-01-28T23:54:10.354Z,67.21
2023-01-28T23:56:39.060Z,66.03
2023-01-28T23:59:06.697Z,66.60
